sensor_id;sensor_type;location;lat;lon;timestamp;pressure;altitude;pressure_sealevel;temperature;humidity
12626;BME280;6378;42.684;23.372;2023-11-21T00:01:06;94953.31;;;5.26;100.00
12626;BME280;6378;42.684;23.372;2023-11-21T00:03:34;94958.50;;;5.22;100.00
12626;BME280;6378;42.684;23.372;2023-11-21T00:05:59;94956.91;;;5.21;100.00
12626;BME280;6378;42.684;23.372;2023-11-21T00:08:26;94946.84;;;5.18;100.00
12626;BME280;6378;42.684;23.372;2023-11-21T00:10:52;94934.47;;;5.14;100.00
12626;BME280;6378;42.684;23.372;2023-11-21T00:13:18;94915.00;;;5.05;100.00
12626;BME280;6378;42.684;23.372;2023-11-21T00:15:43;94949.56;;;5.27;100.00
12626;BME280;6378;42.684;23.372;2023-11-21T00:18:09;94955.81;;;5.31;100.00
12626;BME280;6378;42.684;23.372;2023-11-21T00:20:35;94955.66;;;5.36;100.00
12626;BME280;6378;42.684;23.372;2023-11-21T00:23:00;94956.13;;;5.38;100.00
12626;BME280;6378;42.684;23.372;2023-11-21T00:25:27;94941.22;;;5.20;100.00
12626;BME280;6378;42.684;23.372;2023-11-21T00:27:53;94951.59;;;5.30;100.00
12626;BME280;6378;42.684;23.372;2023-11-21T00:30:19;94936.03;;;5.23;100.00
12626;BME280;6378;42.684;23.372;2023-11-21T00:32:46;94946.88;;;5.36;100.00
12626;BME280;6378;42.684;23.372;2023-11-21T00:35:11;94949.84;;;5.34;100.00
12626;BME280;6378;42.684;23.372;2023-11-21T00:37:37;94943.28;;;5.32;100.00
12626;BME280;6378;42.684;23.372;2023-11-21T00:40:04;94923.19;;;5.17;100.00
12626;BME280;6378;42.684;23.372;2023-11-21T00:42:31;94945.31;;;5.26;100.00
12626;BME280;6378;42.684;23.372;2023-11-21T00:44:59;94954.56;;;5.29;100.00
12626;BME280;6378;42.684;23.372;2023-11-21T00:47:24;94948.59;;;5.23;100.00
12626;BME280;6378;42.684;23.372;2023-11-21T00:49:49;94947.19;;;5.17;100.00
12626;BME280;6378;42.684;23.372;2023-11-21T00:52:15;94950.00;;;5.20;100.00
12626;BME280;6378;42.684;23.372;2023-11-21T00:54:41;94953.63;;;5.16;100.00
12626;BME280;6378;42.684;23.372;2023-11-21T00:57:07;94944.50;;;5.08;100.00
12626;BME280;6378;42.684;23.372;2023-11-21T00:59:34;94933.22;;;5.03;100.00
12626;BME280;6378;42.684;23.372;2023-11-21T01:02:00;94935.25;;;5.06;100.00
12626;BME280;6378;42.684;23.372;2023-11-21T01:04:27;94941.66;;;5.13;100.00
12626;BME280;6378;42.684;23.372;2023-11-21T01:06:52;94934.31;;;5.10;100.00
12626;BME280;6378;42.684;23.372;2023-11-21T01:09:18;94935.88;;;5.20;100.00
12626;BME280;6378;42.684;23.372;2023-11-21T01:11:44;94928.66;;;5.12;100.00
12626;BME280;6378;42.684;23.372;2023-11-21T01:14:09;94939.34;;;5.12;100.00
12626;BME280;6378;42.684;23.372;2023-11-21T01:16:35;94928.66;;;5.12;100.00
12626;BME280;6378;42.684;23.372;2023-11-21T01:19:01;94902.25;;;4.85;100.00
12626;BME280;6378;42.684;23.372;2023-11-21T01:21:27;94931.16;;;5.00;100.00
12626;BME280;6378;42.684;23.372;2023-11-21T01:23:53;94935.22;;;4.89;100.00
12626;BME280;6378;42.684;23.372;2023-11-21T01:26:20;94946.03;;;4.84;100.00
12626;BME280;6378;42.684;23.372;2023-11-21T01:28:46;94950.88;;;4.82;100.00
12626;BME280;6378;42.684;23.372;2023-11-21T01:31:14;94944.47;;;4.74;100.00
12626;BME280;6378;42.684;23.372;2023-11-21T01:33:40;94934.84;;;4.64;100.00
12626;BME280;6378;42.684;23.372;2023-11-21T01:36:06;94932.00;;;4.52;100.00
12626;BME280;6378;42.684;23.372;2023-11-21T01:38:31;94912.31;;;4.31;100.00
12626;BME280;6378;42.684;23.372;2023-11-21T01:40:57;94914.44;;;4.12;100.00
12626;BME280;6378;42.684;23.372;2023-11-21T01:43:23;94939.09;;;4.26;100.00
12626;BME280;6378;42.684;23.372;2023-11-21T01:45:48;94948.53;;;4.32;100.00
12626;BME280;6378;42.684;23.372;2023-11-21T01:48:14;94950.72;;;4.30;100.00
12626;BME280;6378;42.684;23.372;2023-11-21T01:50:42;94935.66;;;4.25;100.00
12626;BME280;6378;42.684;23.372;2023-11-21T01:53:08;94919.19;;;4.23;100.00
12626;BME280;6378;42.684;23.372;2023-11-21T01:55:34;94929.56;;;4.25;100.00
12626;BME280;6378;42.684;23.372;2023-11-21T01:58:00;94931.72;;;4.23;100.00
12626;BME280;6378;42.684;23.372;2023-11-21T02:00:26;94932.03;;;4.21;100.00
12626;BME280;6378;42.684;23.372;2023-11-21T02:02:54;94928.16;;;4.27;100.00
12626;BME280;6378;42.684;23.372;2023-11-21T02:05:19;94935.34;;;4.27;100.00
12626;BME280;6378;42.684;23.372;2023-11-21T02:07:47;94936.56;;;4.21;100.00
12626;BME280;6378;42.684;23.372;2023-11-21T02:10:14;94923.56;;;4.19;100.00
12626;BME280;6378;42.684;23.372;2023-11-21T02:12:43;94927.50;;;4.22;100.00
12626;BME280;6378;42.684;23.372;2023-11-21T02:15:13;94926.41;;;4.23;100.00
12626;BME280;6378;42.684;23.372;2023-11-21T02:17:48;94928.38;;;4.09;100.00
12626;BME280;6378;42.684;23.372;2023-11-21T02:20:17;94939.38;;;4.16;100.00
12626;BME280;6378;42.684;23.372;2023-11-21T02:22:48;94930.78;;;4.19;100.00
12626;BME280;6378;42.684;23.372;2023-11-21T02:25:14;94927.59;;;4.08;100.00
12626;BME280;6378;42.684;23.372;2023-11-21T02:27:39;94926.38;;;4.14;100.00
12626;BME280;6378;42.684;23.372;2023-11-21T02:30:05;94926.06;;;4.16;100.00
12626;BME280;6378;42.684;23.372;2023-11-21T02:32:33;94923.75;;;4.23;100.00
12626;BME280;6378;42.684;23.372;2023-11-21T02:34:59;94917.91;;;4.21;100.00
12626;BME280;6378;42.684;23.372;2023-11-21T02:37:28;94915.78;;;4.31;100.00
12626;BME280;6378;42.684;23.372;2023-11-21T02:39:53;94926.44;;;4.31;100.00
12626;BME280;6378;42.684;23.372;2023-11-21T02:42:19;94918.94;;;4.33;100.00
12626;BME280;6378;42.684;23.372;2023-11-21T02:44:44;94922.84;;;4.36;100.00
12626;BME280;6378;42.684;23.372;2023-11-21T02:47:10;94915.47;;;4.33;100.00
12626;BME280;6378;42.684;23.372;2023-11-21T02:49:35;94918.81;;;4.47;100.00
12626;BME280;6378;42.684;23.372;2023-11-21T02:52:01;94924.44;;;4.46;100.00
12626;BME280;6378;42.684;23.372;2023-11-21T02:54:26;94926.59;;;4.35;100.00
12626;BME280;6378;42.684;23.372;2023-11-21T02:56:52;94918.94;;;4.33;100.00
12626;BME280;6378;42.684;23.372;2023-11-21T02:59:18;94903.06;;;4.20;100.00
12626;BME280;6378;42.684;23.372;2023-11-21T03:01:45;94895.00;;;4.11;100.00
12626;BME280;6378;42.684;23.372;2023-11-21T03:04:11;94925.75;;;4.17;100.00
12626;BME280;6378;42.684;23.372;2023-11-21T03:06:44;94933.56;;;4.14;100.00
12626;BME280;6378;42.684;23.372;2023-11-21T03:09:10;94893.53;;;3.97;100.00
12626;BME280;6378;42.684;23.372;2023-11-21T03:11:37;94920.03;;;4.02;100.00
12626;BME280;6378;42.684;23.372;2023-11-21T03:14:02;94915.66;;;4.06;100.00
12626;BME280;6378;42.684;23.372;2023-11-21T03:16:28;94927.22;;;4.01;100.00
12626;BME280;6378;42.684;23.372;2023-11-21T03:18:54;94929.44;;;3.99;100.00
12626;BME280;6378;42.684;23.372;2023-11-21T03:21:19;94895.34;;;3.79;100.00
12626;BME280;6378;42.684;23.372;2023-11-21T03:23:45;94929.53;;;3.85;100.00
12626;BME280;6378;42.684;23.372;2023-11-21T03:26:13;94916.22;;;3.63;100.00
12626;BME280;6378;42.684;23.372;2023-11-21T03:28:39;94908.38;;;3.58;100.00
12626;BME280;6378;42.684;23.372;2023-11-21T03:31:05;94939.31;;;3.76;100.00
12626;BME280;6378;42.684;23.372;2023-11-21T03:33:32;94926.31;;;3.75;100.00
12626;BME280;6378;42.684;23.372;2023-11-21T03:35:57;94942.03;;;3.85;100.00
12626;BME280;6378;42.684;23.372;2023-11-21T03:38:23;94926.75;;;3.68;100.00
12626;BME280;6378;42.684;23.372;2023-11-21T03:40:48;94933.56;;;3.83;100.00
12626;BME280;6378;42.684;23.372;2023-11-21T03:43:15;94942.22;;;3.88;100.00
12626;BME280;6378;42.684;23.372;2023-11-21T03:45:41;94938.09;;;3.82;100.00
12626;BME280;6378;42.684;23.372;2023-11-21T03:48:07;94935.47;;;3.91;100.00
12626;BME280;6378;42.684;23.372;2023-11-21T03:50:32;94928.25;;;3.83;100.00
12626;BME280;6378;42.684;23.372;2023-11-21T03:52:58;94923.50;;;3.71;100.00
12626;BME280;6378;42.684;23.372;2023-11-21T03:55:24;94914.19;;;3.60;100.00
12626;BME280;6378;42.684;23.372;2023-11-21T03:57:50;94914.13;;;3.52;100.00
12626;BME280;6378;42.684;23.372;2023-11-21T04:00:17;94913.03;;;3.53;100.00
12626;BME280;6378;42.684;23.372;2023-11-21T04:02:42;94910.72;;;3.60;100.00
12626;BME280;6378;42.684;23.372;2023-11-21T04:05:08;94920.59;;;3.59;100.00
12626;BME280;6378;42.684;23.372;2023-11-21T04:07:35;94920.34;;;3.69;100.00
12626;BME280;6378;42.684;23.372;2023-11-21T04:10:00;94879.72;;;3.55;100.00
12626;BME280;6378;42.684;23.372;2023-11-21T04:12:26;94915.97;;;3.73;100.00
12626;BME280;6378;42.684;23.372;2023-11-21T04:14:51;94900.09;;;3.60;100.00
12626;BME280;6378;42.684;23.372;2023-11-21T04:17:19;94903.84;;;3.59;100.00
12626;BME280;6378;42.684;23.372;2023-11-21T04:19:45;94916.31;;;3.49;100.00
12626;BME280;6378;42.684;23.372;2023-11-21T04:22:11;94906.09;;;3.21;100.00
12626;BME280;6378;42.684;23.372;2023-11-21T04:24:37;94911.41;;;3.43;100.00
12626;BME280;6378;42.684;23.372;2023-11-21T04:27:02;94914.72;;;3.48;100.00
12626;BME280;6378;42.684;23.372;2023-11-21T04:29:28;94910.38;;;3.53;100.00
12626;BME280;6378;42.684;23.372;2023-11-21T04:31:53;94905.66;;;3.49;100.00
12626;BME280;6378;42.684;23.372;2023-11-21T04:34:19;94897.69;;;3.27;100.00
12626;BME280;6378;42.684;23.372;2023-11-21T04:36:44;94906.66;;;2.95;100.00
12626;BME280;6378;42.684;23.372;2023-11-21T04:39:10;94906.38;;;3.19;100.00
12626;BME280;6378;42.684;23.372;2023-11-21T04:41:37;94906.25;;;3.24;100.00
12626;BME280;6378;42.684;23.372;2023-11-21T04:44:05;94914.91;;;3.30;100.00
12626;BME280;6378;42.684;23.372;2023-11-21T04:46:31;94914.00;;;3.34;100.00
12626;BME280;6378;42.684;23.372;2023-11-21T04:48:57;94914.66;;;3.40;100.00
12626;BME280;6378;42.684;23.372;2023-11-21T04:51:23;94915.34;;;3.45;100.00
12626;BME280;6378;42.684;23.372;2023-11-21T04:53:48;94901.38;;;3.40;100.00
12626;BME280;6378;42.684;23.372;2023-11-21T04:56:14;94923.88;;;3.56;100.00
12626;BME280;6378;42.684;23.372;2023-11-21T04:58:41;94925.97;;;3.45;100.00
12626;BME280;6378;42.684;23.372;2023-11-21T05:01:07;94919.25;;;3.48;100.00
12626;BME280;6378;42.684;23.372;2023-11-21T05:03:33;94920.34;;;3.47;100.00
12626;BME280;6378;42.684;23.372;2023-11-21T05:05:59;94920.50;;;3.42;100.00
12626;BME280;6378;42.684;23.372;2023-11-21T05:08:25;94914.97;;;3.38;100.00
12626;BME280;6378;42.684;23.372;2023-11-21T05:10:51;94921.50;;;3.32;100.00
12626;BME280;6378;42.684;23.372;2023-11-21T05:13:17;94910.72;;;3.37;100.00
12626;BME280;6378;42.684;23.372;2023-11-21T05:15:43;94910.94;;;3.41;100.00
12626;BME280;6378;42.684;23.372;2023-11-21T05:18:09;94862.25;;;3.18;100.00
12626;BME280;6378;42.684;23.372;2023-11-21T05:20:35;94875.00;;;3.30;100.00
12626;BME280;6378;42.684;23.372;2023-11-21T05:23:01;94904.88;;;3.49;100.00
12626;BME280;6378;42.684;23.372;2023-11-21T05:25:26;94902.09;;;3.54;100.00
12626;BME280;6378;42.684;23.372;2023-11-21T05:27:51;94900.97;;;3.46;100.00
12626;BME280;6378;42.684;23.372;2023-11-21T05:30:18;94910.44;;;3.61;100.00
12626;BME280;6378;42.684;23.372;2023-11-21T05:32:43;94926.41;;;3.61;100.00
12626;BME280;6378;42.684;23.372;2023-11-21T05:35:09;94920.16;;;3.66;100.00
12626;BME280;6378;42.684;23.372;2023-11-21T05:37:37;94926.09;;;3.63;100.00
12626;BME280;6378;42.684;23.372;2023-11-21T05:40:06;94935.09;;;3.75;100.00
12626;BME280;6378;42.684;23.372;2023-11-21T05:42:32;94930.38;;;3.72;100.00
12626;BME280;6378;42.684;23.372;2023-11-21T05:44:58;94939.06;;;3.86;100.00
12626;BME280;6378;42.684;23.372;2023-11-21T05:47:41;94940.97;;;3.86;100.00
12626;BME280;6378;42.684;23.372;2023-11-21T05:50:11;94932.47;;;3.84;100.00
12626;BME280;6378;42.684;23.372;2023-11-21T05:52:40;94926.13;;;3.93;100.00
12626;BME280;6378;42.684;23.372;2023-11-21T05:55:07;94914.16;;;3.82;100.00
12626;BME280;6378;42.684;23.372;2023-11-21T05:57:37;94915.72;;;3.83;100.00
12626;BME280;6378;42.684;23.372;2023-11-21T06:00:04;94916.94;;;3.77;100.00
12626;BME280;6378;42.684;23.372;2023-11-21T06:02:52;94927.72;;;4.03;100.00
12626;BME280;6378;42.684;23.372;2023-11-21T06:05:22;94923.53;;;4.11;100.00
12626;BME280;6378;42.684;23.372;2023-11-21T06:07:49;94901.84;;;3.95;100.00
12626;BME280;6378;42.684;23.372;2023-11-21T06:10:14;94935.44;;;4.13;100.00
12626;BME280;6378;42.684;23.372;2023-11-21T06:12:40;94928.84;;;4.11;100.00
12626;BME280;6378;42.684;23.372;2023-11-21T06:15:09;94920.41;;;4.09;100.00
12626;BME280;6378;42.684;23.372;2023-11-21T06:17:37;94925.91;;;4.21;100.00
12626;BME280;6378;42.684;23.372;2023-11-21T06:20:06;94940.66;;;4.66;100.00
12626;BME280;6378;42.684;23.372;2023-11-21T06:22:37;94933.28;;;4.63;100.00
12626;BME280;6378;42.684;23.372;2023-11-21T06:25:03;94949.31;;;4.72;100.00
12626;BME280;6378;42.684;23.372;2023-11-21T06:27:39;94938.63;;;4.63;100.00
12626;BME280;6378;42.684;23.372;2023-11-21T06:30:06;94935.84;;;4.86;100.00
12626;BME280;6378;42.684;23.372;2023-11-21T06:32:32;94946.94;;;4.79;100.00
12626;BME280;6378;42.684;23.372;2023-11-21T06:34:58;94914.50;;;4.77;100.00
12626;BME280;6378;42.684;23.372;2023-11-21T06:37:27;94935.72;;;5.25;100.00
12626;BME280;6378;42.684;23.372;2023-11-21T06:39:53;94946.72;;;5.41;100.00
12626;BME280;6378;42.684;23.372;2023-11-21T06:42:18;94941.84;;;5.51;100.00
12626;BME280;6378;42.684;23.372;2023-11-21T06:44:47;94950.78;;;5.73;100.00
12626;BME280;6378;42.684;23.372;2023-11-21T06:47:13;94923.44;;;5.76;100.00
12626;BME280;6378;42.684;23.372;2023-11-21T06:49:40;94911.97;;;5.92;100.00
12626;BME280;6378;42.684;23.372;2023-11-21T06:52:06;94916.81;;;5.99;100.00
12626;BME280;6378;42.684;23.372;2023-11-21T06:54:31;94932.56;;;6.38;100.00
12626;BME280;6378;42.684;23.372;2023-11-21T06:56:58;94932.78;;;6.92;100.00
12626;BME280;6378;42.684;23.372;2023-11-21T06:59:23;94933.78;;;7.29;100.00
12626;BME280;6378;42.684;23.372;2023-11-21T07:01:50;94940.38;;;7.52;100.00
12626;BME280;6378;42.684;23.372;2023-11-21T07:04:15;94926.91;;;7.61;100.00
12626;BME280;6378;42.684;23.372;2023-11-21T07:06:41;94901.72;;;7.74;100.00
12626;BME280;6378;42.684;23.372;2023-11-21T07:09:06;94926.75;;;7.78;100.00
12626;BME280;6378;42.684;23.372;2023-11-21T07:11:34;94922.00;;;7.63;100.00
12626;BME280;6378;42.684;23.372;2023-11-21T07:14:00;94921.00;;;7.67;100.00
12626;BME280;6378;42.684;23.372;2023-11-21T07:16:31;94915.75;;;7.59;100.00
12626;BME280;6378;42.684;23.372;2023-11-21T07:19:00;94914.50;;;7.56;100.00
12626;BME280;6378;42.684;23.372;2023-11-21T07:21:25;94913.94;;;7.51;100.00
12626;BME280;6378;42.684;23.372;2023-11-21T07:23:50;94917.09;;;7.65;100.00
12626;BME280;6378;42.684;23.372;2023-11-21T07:26:17;94917.09;;;7.65;100.00
12626;BME280;6378;42.684;23.372;2023-11-21T07:28:42;94917.91;;;7.65;100.00
12626;BME280;6378;42.684;23.372;2023-11-21T07:31:08;94918.38;;;7.79;100.00
12626;BME280;6378;42.684;23.372;2023-11-21T07:33:33;94915.38;;;7.81;100.00
12626;BME280;6378;42.684;23.372;2023-11-21T07:35:59;94904.16;;;8.00;100.00
12626;BME280;6378;42.684;23.372;2023-11-21T07:38:24;94925.53;;;8.20;100.00
12626;BME280;6378;42.684;23.372;2023-11-21T07:40:49;94918.81;;;8.14;100.00
12626;BME280;6378;42.684;23.372;2023-11-21T07:43:15;94919.00;;;8.30;100.00
12626;BME280;6378;42.684;23.372;2023-11-21T07:45:40;94913.66;;;8.09;100.00
12626;BME280;6378;42.684;23.372;2023-11-21T07:48:07;94905.41;;;8.14;100.00
12626;BME280;6378;42.684;23.372;2023-11-21T07:50:32;94890.91;;;8.15;100.00
12626;BME280;6378;42.684;23.372;2023-11-21T07:52:58;94907.50;;;8.30;100.00
12626;BME280;6378;42.684;23.372;2023-11-21T07:55:24;94906.88;;;8.24;100.00
12626;BME280;6378;42.684;23.372;2023-11-21T07:57:50;94897.13;;;8.07;100.00
12626;BME280;6378;42.684;23.372;2023-11-21T08:00:16;94904.72;;;8.05;100.00
12626;BME280;6378;42.684;23.372;2023-11-21T08:02:41;94904.16;;;8.00;100.00
12626;BME280;6378;42.684;23.372;2023-11-21T08:05:12;94866.94;;;7.86;100.00
12626;BME280;6378;42.684;23.372;2023-11-21T08:07:38;94894.84;;;7.85;100.00
12626;BME280;6378;42.684;23.372;2023-11-21T08:10:04;94886.81;;;7.85;100.00
12626;BME280;6378;42.684;23.372;2023-11-21T08:12:34;94896.38;;;7.74;100.00
12626;BME280;6378;42.684;23.372;2023-11-21T08:14:59;94894.56;;;7.66;100.00
12626;BME280;6378;42.684;23.372;2023-11-21T08:17:25;94859.06;;;7.57;100.00
12626;BME280;6378;42.684;23.372;2023-11-21T08:19:51;94881.63;;;7.68;100.00
12626;BME280;6378;42.684;23.372;2023-11-21T08:22:16;94888.81;;;7.88;100.00
12626;BME280;6378;42.684;23.372;2023-11-21T08:24:43;94875.31;;;7.84;100.00
12626;BME280;6378;42.684;23.372;2023-11-21T08:27:09;94886.88;;;8.09;100.00
12626;BME280;6378;42.684;23.372;2023-11-21T08:29:35;94900.50;;;8.16;100.00
12626;BME280;6378;42.684;23.372;2023-11-21T08:32:02;94891.69;;;8.28;100.00
12626;BME280;6378;42.684;23.372;2023-11-21T08:34:28;94841.94;;;8.06;100.00
12626;BME280;6378;42.684;23.372;2023-11-21T08:36:54;94885.72;;;8.43;100.00
12626;BME280;6378;42.684;23.372;2023-11-21T08:39:20;94893.63;;;8.52;100.00
12626;BME280;6378;42.684;23.372;2023-11-21T08:41:49;94898.00;;;8.68;100.00
12626;BME280;6378;42.684;23.372;2023-11-21T08:44:16;94892.19;;;8.79;100.00
12626;BME280;6378;42.684;23.372;2023-11-21T08:46:43;94887.38;;;8.72;100.00
12626;BME280;6378;42.684;23.372;2023-11-21T08:49:11;94877.13;;;8.50;100.00
12626;BME280;6378;42.684;23.372;2023-11-21T08:51:37;94880.88;;;8.37;100.00
12626;BME280;6378;42.684;23.372;2023-11-21T08:54:03;94888.84;;;8.57;100.00
12626;BME280;6378;42.684;23.372;2023-11-21T08:56:33;94855.31;;;8.51;100.00
12626;BME280;6378;42.684;23.372;2023-11-21T08:58:58;94869.28;;;8.69;100.00
12626;BME280;6378;42.684;23.372;2023-11-21T09:01:25;94874.53;;;8.78;100.00
12626;BME280;6378;42.684;23.372;2023-11-21T09:03:51;94858.63;;;8.85;100.00
12626;BME280;6378;42.684;23.372;2023-11-21T09:06:16;94866.59;;;8.69;100.00
12626;BME280;6378;42.684;23.372;2023-11-21T09:08:42;94844.69;;;8.67;100.00
12626;BME280;6378;42.684;23.372;2023-11-21T09:11:08;94853.06;;;8.65;100.00
12626;BME280;6378;42.684;23.372;2023-11-21T09:13:34;94828.22;;;8.81;100.00
12626;BME280;6378;42.684;23.372;2023-11-21T09:15:59;94823.78;;;8.48;100.00
12626;BME280;6378;42.684;23.372;2023-11-21T09:18:25;94794.97;;;8.33;100.00
12626;BME280;6378;42.684;23.372;2023-11-21T09:20:51;94820.19;;;8.56;100.00
12626;BME280;6378;42.684;23.372;2023-11-21T09:23:16;94811.63;;;8.39;100.00
12626;BME280;6378;42.684;23.372;2023-11-21T09:25:41;94766.81;;;7.91;100.00
12626;BME280;6378;42.684;23.372;2023-11-21T09:28:11;94817.72;;;8.27;100.00
12626;BME280;6378;42.684;23.372;2023-11-21T09:30:37;94801.31;;;8.53;100.00
12626;BME280;6378;42.684;23.372;2023-11-21T09:33:03;94789.94;;;8.32;100.00
12626;BME280;6378;42.684;23.372;2023-11-21T09:35:33;94789.94;;;8.32;100.00
12626;BME280;6378;42.684;23.372;2023-11-21T09:37:59;94773.25;;;8.50;100.00
12626;BME280;6378;42.684;23.372;2023-11-21T09:40:26;94766.53;;;8.68;100.00
12626;BME280;6378;42.684;23.372;2023-11-21T09:42:56;94768.34;;;8.64;100.00
12626;BME280;6378;42.684;23.372;2023-11-21T09:45:29;94764.31;;;8.58;100.00
12626;BME280;6378;42.684;23.372;2023-11-21T09:47:59;94762.06;;;9.00;100.00
12626;BME280;6378;42.684;23.372;2023-11-21T09:50:25;94749.59;;;9.36;100.00
12626;BME280;6378;42.684;23.372;2023-11-21T09:55:25;94746.16;;;9.51;100.00
12626;BME280;6378;42.684;23.372;2023-11-21T09:57:53;94725.19;;;9.41;100.00
12626;BME280;6378;42.684;23.372;2023-11-21T10:00:21;94710.81;;;9.05;100.00
12626;BME280;6378;42.684;23.372;2023-11-21T10:02:49;94712.53;;;8.98;100.00
12626;BME280;6378;42.684;23.372;2023-11-21T10:05:15;94703.13;;;9.04;100.00
12626;BME280;6378;42.684;23.372;2023-11-21T10:07:43;94707.19;;;9.57;100.00
12626;BME280;6378;42.684;23.372;2023-11-21T10:10:10;94705.00;;;9.78;100.00
12626;BME280;6378;42.684;23.372;2023-11-21T10:12:35;94684.19;;;9.91;100.00
12626;BME280;6378;42.684;23.372;2023-11-21T10:15:03;94711.69;;;10.16;100.00
12626;BME280;6378;42.684;23.372;2023-11-21T10:17:31;94677.91;;;10.18;100.00
12626;BME280;6378;42.684;23.372;2023-11-21T10:20:05;94693.56;;;10.67;100.00
12626;BME280;6378;42.684;23.372;2023-11-21T10:22:38;94678.81;;;10.61;100.00
12626;BME280;6378;42.684;23.372;2023-11-21T10:25:06;94684.69;;;10.85;100.00
12626;BME280;6378;42.684;23.372;2023-11-21T10:27:34;94678.88;;;11.03;100.00
12626;BME280;6378;42.684;23.372;2023-11-21T10:30:02;94675.19;;;11.11;100.00
12626;BME280;6378;42.684;23.372;2023-11-21T10:32:29;94673.31;;;11.15;100.00
12626;BME280;6378;42.684;23.372;2023-11-21T10:34:58;94663.09;;;11.24;100.00
12626;BME280;6378;42.684;23.372;2023-11-21T10:37:34;94668.59;;;11.08;100.00
12626;BME280;6378;42.684;23.372;2023-11-21T10:40:00;94663.09;;;11.24;100.00
12626;BME280;6378;42.684;23.372;2023-11-21T10:42:26;94584.97;;;10.78;100.00
12626;BME280;6378;42.684;23.372;2023-11-21T10:44:53;94645.09;;;11.28;100.00
12626;BME280;6378;42.684;23.372;2023-11-21T10:47:19;94656.59;;;11.48;100.00
12626;BME280;6378;42.684;23.372;2023-11-21T10:49:48;94653.97;;;11.51;100.00
12626;BME280;6378;42.684;23.372;2023-11-21T10:52:13;94652.69;;;11.68;100.00
12626;BME280;6378;42.684;23.372;2023-11-21T10:54:43;94660.41;;;11.69;100.00
12626;BME280;6378;42.684;23.372;2023-11-21T10:57:10;94651.44;;;11.62;100.00
12626;BME280;6378;42.684;23.372;2023-11-21T10:59:36;94641.38;;;11.59;100.00
12626;BME280;6378;42.684;23.372;2023-11-21T11:02:18;94635.44;;;11.50;100.00
12626;BME280;6378;42.684;23.372;2023-11-21T11:04:48;94625.44;;;11.50;100.00
12626;BME280;6378;42.684;23.372;2023-11-21T11:07:14;94638.97;;;11.54;100.00
12626;BME280;6378;42.684;23.372;2023-11-21T11:09:44;94632.66;;;11.43;100.00
12626;BME280;6378;42.684;23.372;2023-11-21T11:12:11;94631.03;;;11.38;100.00
12626;BME280;6378;42.684;23.372;2023-11-21T11:14:40;94552.44;;;10.87;100.00
12626;BME280;6378;42.684;23.372;2023-11-21T11:17:07;94617.50;;;11.35;100.00
12626;BME280;6378;42.684;23.372;2023-11-21T11:19:34;94605.09;;;11.30;100.00
12626;BME280;6378;42.684;23.372;2023-11-21T11:25:03;94607.88;;;11.34;100.00
12626;BME280;6378;42.684;23.372;2023-11-21T11:36:09;94565.53;;;11.11;100.00
12626;BME280;6378;42.684;23.372;2023-11-21T11:38:38;94586.91;;;11.23;100.00
12626;BME280;6378;42.684;23.372;2023-11-21T11:41:05;94587.81;;;11.31;100.00
12626;BME280;6378;42.684;23.372;2023-11-21T11:43:31;94584.06;;;11.39;100.00
12626;BME280;6378;42.684;23.372;2023-11-21T11:46:09;94581.69;;;11.34;100.00
12626;BME280;6378;42.684;23.372;2023-11-21T11:48:37;94581.69;;;11.34;100.00
12626;BME280;6378;42.684;23.372;2023-11-21T11:51:11;94593.19;;;11.31;100.00
12626;BME280;6378;42.684;23.372;2023-11-21T11:53:40;94599.09;;;11.40;100.00
12626;BME280;6378;42.684;23.372;2023-11-21T11:58:47;94602.22;;;11.42;100.00
12626;BME280;6378;42.684;23.372;2023-11-21T12:01:13;94605.94;;;11.57;100.00
12626;BME280;6378;42.684;23.372;2023-11-21T12:03:38;94594.38;;;11.56;100.00
12626;BME280;6378;42.684;23.372;2023-11-21T12:06:05;94591.63;;;11.53;100.00
12626;BME280;6378;42.684;23.372;2023-11-21T12:08:32;94594.44;;;11.37;100.00
12626;BME280;6378;42.684;23.372;2023-11-21T12:10:58;94601.94;;;11.47;100.00
12626;BME280;6378;42.684;23.372;2023-11-21T12:13:23;94603.84;;;11.24;100.00
12626;BME280;6378;42.684;23.372;2023-11-21T12:15:49;94591.28;;;11.09;100.00
12626;BME280;6378;42.684;23.372;2023-11-21T12:18:15;94601.28;;;11.08;100.00
12626;BME280;6378;42.684;23.372;2023-11-21T12:20:41;94600.50;;;11.08;100.00
12626;BME280;6378;42.684;23.372;2023-11-21T12:23:08;94597.84;;;10.89;100.00
12626;BME280;6378;42.684;23.372;2023-11-21T12:25:39;94601.91;;;10.79;100.00
12626;BME280;6378;42.684;23.372;2023-11-21T12:28:06;94601.06;;;10.75;100.00
12626;BME280;6378;42.684;23.372;2023-11-21T12:30:33;94595.63;;;10.52;100.00
12626;BME280;6378;42.684;23.372;2023-11-21T12:33:03;94600.38;;;10.39;100.00
12626;BME280;6378;42.684;23.372;2023-11-21T12:35:31;94611.41;;;10.34;100.00
12626;BME280;6378;42.684;23.372;2023-11-21T12:38:02;94622.16;;;10.34;100.00
12626;BME280;6378;42.684;23.372;2023-11-21T12:40:30;94612.31;;;10.42;100.00
12626;BME280;6378;42.684;23.372;2023-11-21T12:42:57;94602.41;;;10.27;100.00
12626;BME280;6378;42.684;23.372;2023-11-21T12:45:27;94603.91;;;10.24;100.00
12626;BME280;6378;42.684;23.372;2023-11-21T12:47:56;94606.66;;;10.28;100.00
12626;BME280;6378;42.684;23.372;2023-11-21T12:50:26;94600.63;;;10.15;100.00
12626;BME280;6378;42.684;23.372;2023-11-21T12:53:04;94595.66;;;10.17;100.00
12626;BME280;6378;42.684;23.372;2023-11-21T12:55:32;94580.56;;;10.13;100.00
12626;BME280;6378;42.684;23.372;2023-11-21T12:57:59;94587.97;;;10.16;100.00
12626;BME280;6378;42.684;23.372;2023-11-21T13:03:09;94581.56;;;10.05;100.00
12626;BME280;6378;42.684;23.372;2023-11-21T13:05:38;94570.94;;;10.12;100.00
12626;BME280;6378;42.684;23.372;2023-11-21T13:08:06;94575.88;;;10.25;100.00
12626;BME280;6378;42.684;23.372;2023-11-21T13:10:39;94563.69;;;10.31;100.00
12626;BME280;6378;42.684;23.372;2023-11-21T13:13:06;94579.47;;;10.33;100.00
12626;BME280;6378;42.684;23.372;2023-11-21T13:15:34;94572.53;;;10.32;100.00